Terminal Aerodrome Forecast
Issued by NWS Cleveland, OH

Home | Current Version | Previous Version | Text Only | Print | Product List | Glossary Off
Versions: 1 2 3 4 5 6 7 8 9 10 11 12 13 14 15 16 17 18 19 20 21 22 23 24

865
FTUS41 KCLE 122032 AAA
TAFYNG
TAF AMD
KYNG 122032Z 1221/1318 31015G25KT 6SM -SHSN BLSN OVC035
      TEMPO 1221/1301 30015KT 1SM -SHSN OVC017
     FM130300 29015G25KT 6SM -SHSN BKN025
     FM130700 28012KT P6SM BKN025
     FM131400 24008KT P6SM BKN030=

USA.gov is the U.S. government's official web portal to all federal, state and local government web resources and services.